ADDS METAR Data INFO
IDs: Format: Raw Decoded Include TAF

Data at: 1506 UTC 23 Oct 2017

KAFK 231455Z AUTO 34013G19KT 10SM CLR 16/05 A2997 RMK AO2 T01590047
KAFK 231435Z AUTO 35014G22KT 10SM CLR 16/05 A2996 RMK AO2 T01570046
KAFK 231415Z AUTO 35010G15KT 10SM CLR 15/05 A2995 RMK AO2 T01540050
KAFK 231355Z AUTO 35011G19KT 10SM CLR 14/04 A2994 RMK AO2 T01410042
KAFK 231335Z AUTO 35011G19KT 10SM CLR 14/04 A2993 RMK AO2 T01350040
KAFK 231315Z AUTO 36014G21KT 10SM CLR 13/04 A2993 RMK AO2 T01280038
KAFK 231255Z AUTO 34013G18KT 10SM CLR 12/03 A2992 RMK AO2 T01180031
KAFK 231235Z AUTO 34012G19KT 10SM CLR 11/02 A2991 RMK AO2 T01060023
KAFK 231215Z AUTO 29009KT 10SM CLR 09/02 A2990 RMK AO2 T00910020
KAFK 231155Z AUTO 26008KT 10SM CLR 08/03 A2989 RMK AO2 T00830025 10093 20061
KAFK 231135Z AUTO 25006KT 10SM CLR 07/03 A2989 RMK AO2 T00660027
KAFK 231115Z AUTO 21007KT 10SM CLR 06/03 A2988 RMK AO2 T00620027
KAFK 231055Z AUTO 23004KT 10SM CLR 07/03 A2988 RMK AO2 T00700027
KAFK 231035Z AUTO 20008KT 10SM CLR 07/03 A2987 RMK AO2 T00700026
KAFK 231015Z AUTO 20008KT 10SM CLR 08/03 A2987 RMK AO2 T00770026
KAFK 230955Z AUTO 20008KT 10SM CLR 08/02 A2987 RMK AO2 T00780022
KAFK 230935Z AUTO 20009KT 10SM CLR 08/02 A2988 RMK AO2 T00810021
KAFK 230915Z AUTO 20008KT 10SM CLR 08/02 A2988 RMK AO2 T00800020
KAFK 230855Z AUTO 19009KT 10SM CLR 08/02 A2989 RMK AO2 T00810016
KAFK 230835Z AUTO 20008KT 10SM CLR 09/02 A2990 RMK AO2 T00860015
KAFK 230815Z AUTO 21009KT 10SM CLR 09/02 A2992 RMK AO2 T00900015
KAFK 230755Z AUTO 21009KT 10SM CLR 09/02 A2993 RMK AO2 T00880015
KAFK 230735Z AUTO 21009KT 10SM CLR 09/02 A2994 RMK AO2 T00910015
KAFK 230715Z AUTO 21009KT 10SM CLR 09/02 A2994 RMK AO2 T00900016
KAFK 230655Z AUTO 21009KT 10SM CLR 09/02 A2994 RMK AO2 T00880019
KAFK 230635Z AUTO 20007KT 10SM CLR 08/02 A2995 RMK AO2 T00810021
KAFK 230615Z AUTO 20008KT 10SM CLR 09/02 A2995 RMK AO2 T00900020
KAFK 230555Z AUTO 20008KT 10SM CLR 09/02 A2996 RMK AO2 T00940020 10126 20094 402020066
KAFK 230535Z AUTO 20009KT 10SM CLR 10/02 A2996 RMK AO2 T00970019
KAFK 230515Z AUTO 21009KT 10SM CLR 10/02 A2997 RMK AO2 T01000019
KAFK 230455Z AUTO 21008KT 10SM CLR 10/02 A2998 RMK AO2 T01010020
KAFK 230435Z AUTO 20008KT 10SM CLR 10/02 A2999 RMK AO2 T00970020
KAFK 230415Z AUTO 21008KT 10SM CLR 10/02 A2999 RMK AO2 T01030017
KAFK 230355Z AUTO 20008KT 10SM CLR 11/02 A3000 RMK AO2 T01070016
KAFK 230335Z AUTO 20009KT 10SM CLR 11/02 A2999 RMK AO2 T01130015
KAFK 230315Z AUTO 19010KT 10SM CLR 11/01 A2999 RMK AO2 T01140014
KAFK 230255Z AUTO 20009KT 10SM CLR 11/02 A3001 RMK AO2 T01130015
KAFK 230235Z AUTO 20008KT 10SM CLR 12/01 A3002 RMK AO2 T01150012
KAFK 230215Z AUTO 20008KT 10SM CLR 11/01 A3002 RMK AO2 T01140011
KAFK 230155Z AUTO 20007KT 10SM CLR 12/01 A3002 RMK AO2 T01150012
KAFK 230135Z AUTO 19007KT 10SM CLR 11/01 A3002 RMK AO2 T01140012
KAFK 230115Z AUTO 19008KT 10SM CLR 12/01 A3003 RMK AO2 T01210013
KAFK 230055Z AUTO 19007KT 10SM CLR 12/02 A3003 RMK AO2 T01200015
KAFK 230035Z AUTO 18007KT 10SM CLR 12/02 A3003 RMK AO2 T01170018
KAFK 230015Z AUTO 18007KT 10SM CLR 12/02 A3003 RMK AO2 T01220020
KAFK 222355Z AUTO 18006KT 10SM CLR 13/02 A3004 RMK AO2 T01280020 10202 20128
KAFK 222335Z AUTO 18006KT 10SM CLR 15/02 A3004 RMK AO2 T01470015
KAFK 222315Z AUTO 20005KT 10SM CLR 16/02 A3004 RMK AO2 T01640016
KAFK 222255Z AUTO 20008KT 10SM CLR 18/01 A3004 RMK AO2 T01800012
KAFK 222235Z AUTO 20007KT 10SM CLR 19/00 A3004 RMK AO2 T01880001
KAFK 222215Z AUTO 21006KT 10SM CLR 20/00 A3004 RMK AO2 T01950000
KAFK 222155Z AUTO 22007KT 10SM CLR 20/00 A3005 RMK AO2 T01971003
KAFK 222135Z AUTO 25006KT 10SM CLR 20/00 A3005 RMK AO2 T02000000
KAFK 222115Z AUTO 24006KT 10SM CLR 20/00 A3006 RMK AO2 T02000001
KAFK 222055Z AUTO 26007KT 10SM CLR 20/M01 A3006 RMK AO2 T02001006
KAFK 222035Z AUTO 25006KT 10SM CLR 20/00 A3006 RMK AO2 T02010002
KAFK 222015Z AUTO 30003KT 10SM CLR 20/00 A3006 RMK AO2 T01991002
KAFK 221955Z AUTO 28003KT 10SM CLR 20/00 A3007 RMK AO2 T01970004
KAFK 221935Z AUTO 29004KT 10SM CLR 20/01 A3007 RMK AO2 T01950007
KAFK 221915Z AUTO 24007KT 10SM CLR 19/00 A3008 RMK AO2 T01940004
KAFK 221855Z AUTO 31005KT 10SM CLR 19/00 A3009 RMK AO2 T01910004
KAFK 221835Z AUTO 27005KT 10SM CLR 19/02 A3010 RMK AO2 T01890021
KAFK 221815Z AUTO 27004KT 10SM CLR 19/02 A3011 RMK AO2 T01850016
KAFK 221755Z AUTO 30005KT 10SM CLR 18/02 A3011 RMK AO2 T01830019 10183 20066
KAFK 221735Z AUTO 29007KT 10SM CLR 18/03 A3013 RMK AO2 T01800029
KAFK 221715Z AUTO 28009KT 240V310 10SM CLR 18/03 A3014 RMK AO2 T01760032
KAFK 221655Z AUTO 28007KT 10SM CLR 17/04 A3014 RMK AO2 T01710035
KAFK 221635Z AUTO 28005KT 10SM CLR 16/04 A3014 RMK AO2 T01640039
KAFK 221615Z AUTO 30005KT 10SM CLR 16/04 A3014 RMK AO2 T01560044
KAFK 221555Z AUTO 31005KT 10SM CLR 15/04 A3014 RMK AO2 T01450042
KAFK 221535Z AUTO 30004KT 10SM CLR 14/05 A3014 RMK AO2 T01350047
KAFK 221515Z AUTO 30004KT 10SM CLR 12/05 A3014 RMK AO2 T01200050
KAFK 221455Z AUTO 31004KT 10SM CLR 11/05 A3013 RMK AO2 T01140050
KAFK 221435Z AUTO 31004KT 10SM CLR 11/05 A3013 RMK AO2 T01060047
KAFK 221415Z AUTO 32003KT 10SM CLR 09/05 A3012 RMK AO2 T00930047
KAFK 221355Z AUTO 32005KT 10SM CLR 09/05 A3012 RMK AO2 T00870047
KAFK 221335Z AUTO 31006KT 10SM CLR 08/05 A3011 RMK AO2 T00800050
KAFK 221315Z AUTO 29007KT 10SM CLR 07/05 A3010 RMK AO2 T00690051
KAFK 221255Z AUTO 28008KT 10SM CLR 07/05 A3010 RMK AO2 T00670052
KAFK 221235Z AUTO 28009KT 10SM CLR 07/06 A3010 RMK AO2 T00670055
KAFK 221215Z AUTO 27008KT 10SM CLR 07/06 A3009 RMK AO2 T00700057
KAFK 221155Z AUTO 27007KT 10SM CLR 07/06 A3009 RMK AO2 T00680058 10107 20068
KAFK 221135Z AUTO 26007KT 10SM CLR 07/06 A3009 RMK AO2 T00710060
KAFK 221115Z AUTO 26006KT 10SM CLR 08/06 A3008 RMK AO2 T00750060
KAFK 221055Z AUTO 26005KT 10SM CLR 08/06 A3008 RMK AO2 T00770061
KAFK 221035Z AUTO 26005KT 10SM CLR 08/06 A3007 RMK AO2 T00810060
KAFK 221015Z AUTO 27004KT 10SM CLR 08/06 A3005 RMK AO2 T00840055
KAFK 220955Z AUTO 28003KT 10SM CLR 09/06 A3003 RMK AO2 T00860057
KAFK 220935Z AUTO 29004KT 10SM CLR 09/06 A3002 RMK AO2 T00890057
KAFK 220915Z AUTO 29005KT 10SM CLR 10/06 A3001 RMK AO2 T00950057
KAFK 220855Z AUTO 29006KT 10SM CLR 10/06 A3001 RMK AO2 T00950057
KAFK 220835Z AUTO 29006KT 10SM CLR 10/06 A3002 RMK AO2 T00960060
KAFK 220815Z AUTO 30007KT 10SM CLR 10/06 A3001 RMK AO2 T00960061
KAFK 220755Z AUTO 29004KT 10SM CLR 10/06 A3001 RMK AO2 T00980061
KAFK 220735Z AUTO 30005KT 10SM CLR 10/06 A3001 RMK AO2 T00980064
KAFK 220715Z AUTO 35003KT 10SM CLR 10/06 A2998 RMK AO2 LTG DSNT S T01030056
KAFK 220655Z AUTO 32004KT 10SM CLR 11/06 A2999 RMK AO2 T01050056
KAFK 220635Z AUTO 33005KT 10SM CLR 11/06 A2999 RMK AO2 LTG DSNT SE T01060059
KAFK 220615Z AUTO 33006KT 10SM CLR 11/06 A2999 RMK AO2 LTG DSNT SE T01060060
KAFK 220555Z AUTO 33004KT 10SM CLR 11/06 A3000 RMK AO2 LTG DSNT SE T01070061 10150 20107 402480107
KAFK 220535Z AUTO 34003KT 10SM CLR 11/06 A3000 RMK AO2 T01100057
KAFK 220515Z AUTO 35004KT 10SM CLR 11/06 A3000 RMK AO2 T01110057
KAFK 220455Z AUTO 34003KT 10SM CLR 11/06 A3001 RMK AO2 LTG DSNT S T01130055
KAFK 220435Z AUTO 34004KT 10SM CLR 12/06 A2999 RMK AO2 T01160055
KAFK 220415Z AUTO 34004KT 10SM CLR 12/05 A2999 RMK AO2 LTG DSNT SE T01180053
KAFK 220355Z AUTO 35006KT 10SM CLR 12/05 A2999 RMK AO2 LTG DSNT E AND SE T01220051
KAFK 220335Z AUTO 34006KT 10SM CLR 13/05 A2999 RMK AO2 LTG DSNT E THRU S T01250050
KAFK 220315Z AUTO 34007KT 10SM CLR 13/05 A2999 RMK AO2 LTG DSNT E AND SE T01260051